createdAt,value
2022-11-24T00:01:17.794Z,1.02
2022-11-24T00:03:46.254Z,0.57
2022-11-24T00:06:15.691Z,0.90
2022-11-24T00:08:44.900Z,1.27
2022-11-24T00:11:16.750Z,0.43
2022-11-24T00:13:44.084Z,0.65
2022-11-24T00:16:15.204Z,1.20
2022-11-24T00:18:43.267Z,1.63
2022-11-24T00:21:10.524Z,1.15
2022-11-24T00:23:37.748Z,0.85
2022-11-24T00:26:08.624Z,1.02
2022-11-24T00:28:36.742Z,1.45
2022-11-24T00:31:05.194Z,1.30
2022-11-24T00:33:32.262Z,1.85
2022-11-24T00:36:00.313Z,1.10
2022-11-24T00:38:27.155Z,1.17
2022-11-24T00:40:53.934Z,1.58
2022-11-24T00:43:20.561Z,1.15
2022-11-24T00:45:47.326Z,0.52
2022-11-24T00:48:15.027Z,0.60
2022-11-24T00:50:41.751Z,1.00
2022-11-24T00:53:08.651Z,1.20
2022-11-24T00:55:35.305Z,1.02
2022-11-24T00:58:01.989Z,0.90
2022-11-24T01:00:28.707Z,1.20
2022-11-24T01:02:55.464Z,1.33
2022-11-24T01:05:22.106Z,0.98
2022-11-24T01:07:48.786Z,1.23
2022-11-24T01:10:15.875Z,0.57
2022-11-24T01:12:42.675Z,1.00
2022-11-24T01:15:09.515Z,1.15
2022-11-24T01:17:36.147Z,0.85
2022-11-24T01:20:03.216Z,0.90
2022-11-24T01:22:29.843Z,1.02
2022-11-24T01:24:56.571Z,0.98
2022-11-24T01:27:23.206Z,1.30
2022-11-24T01:29:49.838Z,1.02
2022-11-24T01:32:16.468Z,1.83
2022-11-24T01:34:43.406Z,1.88
2022-11-24T01:37:09.990Z,0.85
2022-11-24T01:39:36.585Z,1.42
2022-11-24T01:42:03.594Z,0.60
2022-11-24T01:44:31.182Z,0.73
2022-11-24T01:47:06.783Z,0.82
2022-11-24T01:49:44.542Z,1.58
2022-11-24T01:52:13.350Z,1.13
2022-11-24T01:54:45.540Z,0.80
2022-11-24T01:57:27.455Z,0.75
2022-11-24T01:59:59.624Z,0.98
2022-11-24T02:02:29.739Z,0.75
2022-11-24T02:05:05.062Z,0.65
2022-11-24T02:07:32.768Z,1.33
2022-11-24T02:10:03.591Z,0.75
2022-11-24T02:12:31.455Z,1.33
2022-11-24T02:14:59.546Z,0.60
2022-11-24T02:17:26.271Z,0.70
2022-11-24T02:19:58.664Z,1.33
2022-11-24T02:22:43.493Z,1.30
2022-11-24T02:25:21.766Z,0.68
2022-11-24T02:27:53.683Z,2.03
2022-11-24T02:30:20.915Z,0.82
2022-11-24T02:32:47.511Z,0.93
2022-11-24T02:35:15.207Z,1.13
2022-11-24T02:37:41.793Z,1.05
2022-11-24T02:40:09.073Z,0.20
2022-11-24T02:42:41.702Z,0.40
2022-11-24T02:45:09.836Z,1.23
2022-11-24T02:47:38.823Z,1.23
2022-11-24T02:50:05.927Z,0.63
2022-11-24T02:52:32.758Z,0.40
2022-11-24T02:54:59.319Z,0.60
2022-11-24T02:57:25.886Z,0.98
2022-11-24T02:59:52.468Z,1.52
2022-11-24T03:02:19.277Z,0.73
2022-11-24T03:04:45.950Z,0.85
2022-11-24T03:07:12.719Z,1.08
2022-11-24T03:09:39.345Z,1.10
2022-11-24T03:12:06.419Z,0.57
2022-11-24T03:14:34.797Z,1.15
2022-11-24T03:17:01.802Z,0.68
2022-11-24T03:19:28.559Z,0.38
2022-11-24T03:21:55.075Z,1.33
2022-11-24T03:24:21.714Z,0.80
2022-11-24T03:26:48.423Z,0.80
2022-11-24T03:29:15.159Z,1.77
2022-11-24T03:31:41.974Z,0.50
2022-11-24T03:34:08.869Z,0.40
2022-11-24T03:36:35.815Z,1.00
2022-11-24T03:39:02.443Z,1.65
2022-11-24T03:41:29.040Z,0.93
2022-11-24T03:43:55.609Z,0.88
2022-11-24T03:46:22.434Z,1.02
2022-11-24T03:48:49.372Z,2.63
2022-11-24T03:51:15.987Z,0.77
2022-11-24T03:53:42.549Z,1.23
2022-11-24T03:56:09.180Z,0.88
2022-11-24T03:58:36.162Z,0.68
2022-11-24T04:01:03.702Z,1.05
2022-11-24T04:03:30.490Z,0.77
2022-11-24T04:05:57.096Z,0.80
2022-11-24T04:08:23.853Z,0.82
2022-11-24T04:10:52.778Z,1.38
2022-11-24T04:13:24.709Z,0.68
2022-11-24T04:15:52.123Z,1.42
2022-11-24T04:18:19.584Z,0.68
2022-11-24T04:20:48.652Z,0.73
2022-11-24T04:23:15.469Z,1.10
2022-11-24T04:25:43.800Z,0.75
2022-11-24T04:28:10.408Z,0.82
2022-11-24T04:30:38.679Z,0.77
2022-11-24T04:33:05.298Z,0.75
2022-11-24T04:35:32.034Z,0.88
2022-11-24T04:38:02.804Z,1.15
2022-11-24T04:40:29.474Z,0.60
2022-11-24T04:42:56.303Z,0.68
2022-11-24T04:45:23.632Z,1.25
2022-11-24T04:47:50.445Z,1.10
2022-11-24T04:50:17.886Z,0.65
2022-11-24T04:52:44.769Z,0.50
2022-11-24T04:55:11.472Z,1.23
2022-11-24T04:57:38.663Z,1.50
2022-11-24T05:00:06.530Z,0.52
2022-11-24T05:02:33.276Z,1.77
2022-11-24T05:05:00.026Z,1.17
2022-11-24T05:07:27.831Z,1.25
2022-11-24T05:10:13.024Z,1.55
2022-11-24T05:12:40.129Z,0.75
2022-11-24T05:15:07.918Z,1.77
2022-11-24T05:17:37.149Z,1.23
2022-11-24T05:20:06.140Z,0.90
2022-11-24T05:22:32.800Z,0.70
2022-11-24T05:24:59.447Z,1.42
2022-11-24T05:27:26.075Z,1.75
2022-11-24T05:29:52.706Z,0.77
2022-11-24T05:32:20.180Z,1.60
2022-11-24T05:34:46.790Z,1.10
2022-11-24T05:37:13.418Z,1.13
2022-11-24T05:39:40.122Z,1.38
2022-11-24T05:42:26.163Z,1.58
2022-11-24T05:44:53.699Z,1.23
2022-11-24T05:47:21.556Z,0.93
2022-11-24T05:49:48.227Z,1.05
2022-11-24T05:52:15.307Z,2.58
2022-11-24T05:54:41.999Z,1.85
2022-11-24T05:57:08.618Z,1.08
2022-11-24T05:59:35.512Z,1.27
2022-11-24T06:02:02.910Z,2.17
2022-11-24T06:04:29.774Z,1.13
2022-11-24T06:06:56.494Z,1.17
2022-11-24T06:09:23.216Z,0.85
2022-11-24T06:11:50.269Z,1.92
2022-11-24T06:14:16.929Z,2.28
2022-11-24T06:16:43.705Z,1.45
2022-11-24T06:19:11.547Z,1.30
2022-11-24T06:21:38.319Z,1.92
2022-11-24T06:24:05.745Z,1.20
2022-11-24T06:26:32.589Z,1.73
2022-11-24T06:28:59.317Z,1.27
2022-11-24T06:31:26.614Z,1.50
2022-11-24T06:33:53.659Z,1.10
2022-11-24T06:36:20.422Z,1.45
2022-11-24T06:38:47.217Z,2.25
2022-11-24T06:41:15.730Z,1.27
2022-11-24T06:43:44.080Z,0.60
2022-11-24T06:46:11.715Z,1.63
2022-11-24T06:48:38.890Z,1.35
2022-11-24T06:51:13.169Z,1.52
2022-11-24T06:53:40.679Z,2.00
2022-11-24T06:56:15.824Z,0.55
2022-11-24T06:58:48.438Z,1.63
2022-11-24T07:01:20.614Z,1.15
2022-11-24T07:03:50.825Z,1.10
2022-11-24T07:06:18.809Z,1.25
2022-11-24T07:08:46.199Z,1.20
2022-11-24T07:11:15.803Z,1.50
2022-11-24T07:13:45.314Z,1.17
2022-11-24T07:16:22.382Z,1.63
2022-11-24T07:18:52.195Z,1.40
2022-11-24T07:21:20.661Z,0.52
2022-11-24T07:23:55.545Z,1.42
2022-11-24T07:26:23.304Z,1.73
2022-11-24T07:28:50.791Z,1.08
2022-11-24T07:31:20.110Z,2.33
2022-11-24T07:33:51.127Z,0.52
2022-11-24T07:36:18.071Z,2.22
2022-11-24T07:38:45.462Z,1.60
2022-11-24T07:41:14.203Z,2.70
2022-11-24T07:43:41.200Z,2.33
2022-11-24T07:46:11.457Z,0.98
2022-11-24T07:48:38.206Z,1.88
2022-11-24T07:51:06.072Z,1.67
2022-11-24T07:53:33.418Z,1.80
2022-11-24T07:56:02.011Z,2.05
2022-11-24T07:58:32.915Z,1.25
2022-11-24T08:01:00.586Z,1.02
2022-11-24T08:03:27.804Z,1.40
2022-11-24T08:08:46.065Z,1.23
2022-11-24T08:11:17.251Z,1.70
2022-11-24T08:13:44.425Z,1.85
2022-11-24T08:16:13.560Z,1.90
2022-11-24T08:18:40.747Z,2.88
2022-11-24T08:21:08.507Z,1.35
2022-11-24T08:23:35.193Z,1.17
2022-11-24T08:26:11.384Z,2.03
2022-11-24T08:28:38.380Z,1.63
2022-11-24T08:31:13.296Z,0.98
2022-11-24T08:33:41.038Z,0.85
2022-11-24T08:36:13.274Z,1.63
2022-11-24T08:38:40.193Z,1.75
2022-11-24T08:41:11.960Z,2.05
2022-11-24T08:43:39.394Z,1.23
2022-11-24T08:46:13.369Z,2.65
2022-11-24T08:48:40.371Z,3.00
2022-11-24T08:51:13.060Z,1.60
2022-11-24T08:53:40.993Z,3.08
2022-11-24T08:56:08.765Z,1.35
2022-11-24T08:58:36.439Z,1.83
2022-11-24T09:01:12.517Z,1.17
2022-11-24T09:03:43.554Z,1.05
2022-11-24T09:06:15.725Z,1.73
2022-11-24T09:08:42.664Z,1.92
2022-11-24T09:11:15.157Z,3.33
2022-11-24T09:13:42.130Z,3.20
2022-11-24T09:16:28.885Z,2.80
2022-11-24T09:18:58.171Z,3.90
2022-11-24T09:21:24.836Z,3.05
2022-11-24T09:23:52.914Z,2.83
2022-11-24T09:26:22.703Z,3.25
2022-11-24T09:28:50.277Z,2.40
2022-11-24T09:31:18.119Z,2.20
2022-11-24T09:33:45.519Z,1.77
2022-11-24T09:36:12.982Z,2.78
2022-11-24T09:38:40.042Z,2.25
2022-11-24T09:41:32.783Z,2.33
2022-11-24T09:44:26.821Z,2.15
2022-11-24T09:46:59.840Z,2.58
2022-11-24T09:49:33.687Z,1.30
2022-11-24T09:52:08.130Z,2.33
2022-11-24T09:54:36.581Z,2.03
2022-11-24T09:57:05.004Z,2.22
2022-11-24T09:59:32.035Z,2.83
2022-11-24T10:02:00.728Z,3.88
2022-11-24T10:04:32.323Z,2.78
2022-11-24T10:07:23.914Z,2.25
2022-11-24T10:10:24.301Z,3.17
2022-11-24T10:13:15.923Z,2.53
2022-11-24T10:16:10.317Z,2.53
2022-11-24T10:19:01.403Z,3.03
2022-11-24T10:21:39.221Z,2.28
2022-11-24T10:24:44.903Z,3.22
2022-11-24T10:27:18.559Z,2.08
2022-11-24T10:29:50.317Z,2.38
2022-11-24T10:32:25.504Z,3.13
2022-11-24T10:34:53.753Z,2.25
2022-11-24T10:37:33.864Z,2.83
2022-11-24T10:40:33.074Z,2.88
2022-11-24T10:42:59.734Z,2.47
2022-11-24T10:45:28.285Z,1.92
2022-11-24T10:47:55.460Z,3.65
2022-11-24T10:50:23.801Z,2.40
2022-11-24T10:53:15.704Z,2.42
2022-11-24T10:55:54.648Z,2.13
2022-11-24T10:58:28.127Z,2.33
2022-11-24T11:01:12.704Z,2.60
2022-11-24T11:03:56.303Z,1.58
2022-11-24T11:06:24.891Z,3.33
2022-11-24T11:09:14.339Z,1.67
2022-11-24T11:11:41.819Z,1.50
2022-11-24T11:14:12.939Z,2.20
2022-11-24T11:16:45.850Z,2.70
2022-11-24T11:20:00.325Z,1.33
2022-11-24T11:22:29.969Z,1.70
2022-11-24T11:25:33.888Z,2.83
2022-11-24T11:28:18.292Z,1.95
2022-11-24T11:31:20.996Z,2.42
2022-11-24T11:34:08.289Z,1.95
2022-11-24T11:36:54.287Z,2.85
2022-11-24T11:39:32.302Z,1.92
2022-11-24T11:45:22.817Z,2.90
2022-11-24T11:47:57.128Z,2.60
2022-11-24T11:51:21.309Z,3.25
2022-11-24T11:53:54.595Z,2.58
2022-11-24T11:56:36.605Z,2.20
2022-11-24T11:59:19.431Z,2.83
2022-11-24T12:02:17.634Z,2.47
2022-11-24T12:04:55.523Z,4.10
2022-11-24T12:08:10.932Z,3.13
2022-11-24T12:10:53.598Z,2.90
2022-11-24T12:13:41.574Z,3.47
2022-11-24T12:16:30.984Z,3.13
2022-11-24T12:19:15.710Z,3.22
2022-11-24T12:22:07.176Z,2.60
2022-11-24T12:25:12.351Z,2.53
2022-11-24T12:27:57.933Z,2.47
2022-11-24T12:30:24.756Z,3.47
2022-11-24T12:33:04.923Z,3.85
2022-11-24T12:35:52.096Z,2.72
2022-11-24T12:38:50.942Z,2.88
2022-11-24T12:41:41.304Z,4.38
2022-11-24T12:44:47.146Z,3.00
2022-11-24T12:47:44.886Z,2.28
2022-11-24T12:50:26.306Z,3.15
2022-11-24T12:53:06.350Z,2.85
2022-11-24T12:55:34.177Z,2.40
2022-11-24T12:58:56.870Z,3.60
2022-11-24T13:01:47.164Z,2.83
2022-11-24T13:04:55.697Z,2.63
2022-11-24T13:07:45.015Z,3.15
2022-11-24T13:10:46.482Z,3.05
2022-11-24T13:13:12.667Z,1.98
2022-11-24T13:16:34.715Z,2.60
2022-11-24T13:18:53.745Z,2.40
2022-11-24T13:21:32.675Z,2.40
2022-11-24T13:24:23.623Z,1.88
2022-11-24T13:26:54.872Z,2.05
2022-11-24T13:29:30.445Z,2.10
2022-11-24T13:32:04.118Z,2.25
2022-11-24T13:34:39.748Z,2.85
2022-11-24T13:37:34.593Z,3.40
2022-11-24T13:40:22.767Z,4.10
2022-11-24T13:42:58.846Z,2.75
2022-11-24T13:45:49.761Z,4.20
2022-11-24T13:48:19.381Z,3.40
2022-11-24T13:50:53.986Z,3.35
2022-11-24T13:53:44.117Z,3.88
2022-11-24T13:56:13.467Z,3.03
2022-11-24T13:58:43.651Z,4.15
2022-11-24T14:01:17.891Z,3.83
2022-11-24T14:04:29.333Z,3.03
2022-11-24T14:06:55.622Z,2.60
2022-11-24T14:09:35.264Z,2.60
2022-11-24T14:12:22.270Z,3.85
2022-11-24T14:14:51.797Z,2.88
2022-11-24T14:17:24.824Z,4.00
2022-11-24T14:19:56.565Z,3.53
2022-11-24T14:22:40.882Z,3.15
2022-11-24T14:25:20.029Z,3.05
2022-11-24T14:27:46.631Z,2.63
2022-11-24T14:30:13.716Z,3.15
2022-11-24T14:32:42.571Z,2.42
2022-11-24T14:35:44.677Z,2.92
2022-11-24T14:38:13.004Z,2.05
2022-11-24T14:40:49.769Z,3.10
2022-11-24T14:43:22.454Z,2.97
2022-11-24T14:46:04.817Z,2.42
2022-11-24T14:48:38.046Z,3.03
2022-11-24T14:51:27.738Z,2.78
2022-11-24T14:54:01.817Z,2.88
2022-11-24T14:56:39.881Z,3.33
2022-11-24T14:59:24.716Z,2.75
2022-11-24T15:01:51.705Z,2.80
2022-11-24T15:05:02.702Z,2.65
2022-11-24T15:07:31.125Z,3.35
2022-11-24T15:10:01.394Z,2.08
2022-11-24T15:12:37.877Z,3.28
2022-11-24T15:15:19.963Z,2.75
2022-11-24T15:17:49.745Z,2.80
2022-11-24T15:20:23.439Z,2.75
2022-11-24T15:22:52.673Z,2.15
2022-11-24T15:25:28.516Z,2.67
2022-11-24T15:27:55.399Z,2.22
2022-11-24T15:30:22.171Z,2.25
2022-11-24T15:32:59.005Z,4.60
2022-11-24T15:35:30.810Z,2.88
2022-11-24T15:38:00.099Z,2.83
2022-11-24T15:40:28.544Z,3.22
2022-11-24T15:42:56.427Z,2.25
2022-11-24T15:45:26.410Z,2.67
2022-11-24T15:47:53.347Z,3.10
2022-11-24T15:50:20.692Z,2.75
2022-11-24T15:52:52.156Z,2.97
2022-11-24T15:55:21.632Z,2.70
2022-11-24T15:57:52.024Z,3.85
2022-11-24T16:00:23.568Z,3.17
2022-11-24T16:02:52.338Z,2.70
2022-11-24T16:05:19.001Z,2.92
2022-11-24T16:07:53.720Z,3.30
2022-11-24T16:10:31.713Z,2.38
2022-11-24T16:13:06.848Z,2.45
2022-11-24T16:15:34.526Z,2.63
2022-11-24T16:18:01.176Z,3.08
2022-11-24T16:20:27.723Z,2.42
2022-11-24T16:22:55.250Z,2.28
2022-11-24T16:25:22.245Z,2.50
2022-11-24T16:27:50.451Z,3.03
2022-11-24T16:30:17.134Z,4.00
2022-11-24T16:32:44.329Z,3.75
2022-11-24T16:35:11.063Z,4.45
2022-11-24T16:37:38.735Z,3.10
2022-11-24T16:40:07.613Z,2.97
2022-11-24T16:42:34.255Z,3.45
2022-11-24T16:45:01.078Z,4.05
2022-11-24T16:47:27.864Z,4.75
2022-11-24T16:52:29.982Z,7.15
2022-11-24T16:54:56.617Z,3.88
2022-11-24T16:57:23.194Z,3.83
2022-11-24T16:59:49.757Z,3.78
2022-11-24T17:02:17.722Z,3.90
2022-11-24T17:04:45.185Z,3.22
2022-11-24T17:07:13.607Z,3.25
2022-11-24T18:05:29.247Z,2.35
2022-11-24T18:07:56.115Z,8.25
2022-11-24T18:10:22.924Z,8.95
2022-11-24T18:12:49.692Z,5.93
2022-11-24T18:15:18.500Z,5.05
2022-11-24T18:17:45.140Z,4.78
2022-11-24T18:20:12.198Z,4.57
2022-11-24T18:25:25.690Z,4.70
2022-11-24T18:27:52.304Z,5.53
2022-11-24T18:30:18.982Z,3.83
2022-11-24T18:32:45.577Z,3.08
2022-11-24T18:35:12.279Z,3.17
2022-11-24T18:37:43.879Z,3.15
2022-11-24T18:40:11.420Z,2.45
2022-11-24T18:42:38.087Z,2.20
2022-11-24T18:45:05.699Z,2.85
2022-11-24T18:47:33.655Z,2.47
2022-11-24T18:50:00.514Z,4.75
2022-11-24T18:52:27.129Z,3.00
2022-11-24T18:54:53.761Z,3.80
2022-11-24T18:57:23.853Z,7.70
2022-11-24T18:59:50.673Z,4.07
2022-11-24T19:02:17.341Z,2.22
2022-11-24T19:04:44.113Z,2.28
2022-11-24T19:07:12.789Z,2.60
2022-11-24T19:09:39.428Z,4.00
2022-11-24T19:12:07.790Z,2.92
2022-11-24T19:14:36.383Z,3.40
2022-11-24T19:17:04.335Z,2.65
2022-11-24T19:19:34.114Z,2.30
2022-11-24T19:22:01.772Z,2.05
2022-11-24T19:24:28.500Z,2.60
2022-11-24T19:26:55.269Z,2.60
2022-11-24T19:29:22.041Z,2.25
2022-11-24T19:31:49.040Z,2.60
2022-11-24T19:34:15.767Z,3.33
2022-11-24T19:36:43.354Z,3.13
2022-11-24T19:39:16.864Z,3.20
2022-11-24T19:41:44.145Z,2.72
2022-11-24T19:44:12.326Z,2.67
2022-11-24T19:46:40.022Z,1.83
2022-11-24T19:49:08.898Z,2.30
2022-11-24T19:51:39.587Z,2.38
2022-11-24T19:54:08.490Z,2.15
2022-11-24T19:56:37.116Z,3.33
2022-11-24T19:59:05.794Z,3.75
2022-11-24T20:01:35.116Z,4.15
2022-11-24T20:04:05.284Z,2.35
2022-11-24T20:06:37.580Z,3.42
2022-11-24T20:09:06.979Z,3.20
2022-11-24T20:11:34.316Z,3.03
2022-11-24T20:14:01.136Z,3.08
2022-11-24T20:16:30.231Z,3.88
2022-11-24T20:18:59.217Z,3.08
2022-11-24T20:21:34.083Z,4.20
2022-11-24T20:24:09.414Z,2.97
2022-11-24T20:26:39.317Z,4.13
2022-11-24T20:29:10.018Z,3.22
2022-11-24T20:31:42.820Z,3.85
2022-11-24T20:34:10.799Z,3.47
2022-11-24T20:36:40.132Z,3.85
2022-11-24T20:39:10.143Z,3.28
2022-11-24T20:41:38.910Z,2.17
2022-11-24T20:44:08.438Z,2.78
2022-11-24T20:46:37.881Z,3.10
2022-11-24T20:49:06.500Z,3.40
2022-11-24T20:51:36.674Z,3.03
2022-11-24T20:54:06.552Z,3.63
2022-11-24T20:56:36.762Z,3.58
2022-11-24T20:59:04.762Z,3.28
2022-11-24T21:01:35.293Z,3.65
2022-11-24T21:04:03.298Z,3.50
2022-11-24T21:06:30.689Z,3.35
2022-11-24T21:09:03.228Z,2.45
2022-11-24T21:11:30.612Z,2.70
2022-11-24T21:13:57.201Z,3.13
2022-11-24T21:16:26.758Z,3.92
2022-11-24T21:18:58.375Z,3.22
2022-11-24T21:21:27.246Z,2.33
2022-11-24T21:23:54.170Z,3.10
2022-11-24T21:26:20.744Z,3.30
2022-11-24T21:28:48.120Z,2.90
2022-11-24T21:31:17.809Z,2.92
2022-11-24T21:33:49.759Z,2.42
2022-11-24T21:36:19.721Z,4.63
2022-11-24T21:38:53.359Z,3.05
2022-11-24T21:41:20.808Z,2.83
2022-11-24T21:43:47.875Z,3.35
2022-11-24T21:46:14.795Z,2.58
2022-11-24T21:48:42.444Z,2.97
2022-11-24T21:51:15.667Z,2.35
2022-11-24T21:53:43.907Z,1.90
2022-11-24T21:56:16.895Z,1.83
2022-11-24T21:58:45.722Z,1.88
2022-11-24T22:01:14.311Z,3.05
2022-11-24T22:03:41.070Z,2.83
2022-11-24T22:06:08.569Z,2.95
2022-11-24T22:08:35.432Z,2.03
2022-11-24T22:11:04.848Z,2.58
2022-11-24T22:13:31.803Z,2.15
2022-11-24T22:16:07.735Z,2.15
2022-11-24T22:18:36.204Z,3.88
2022-11-24T22:21:03.980Z,4.00
2022-11-24T22:23:34.951Z,3.35
2022-11-24T22:26:06.072Z,2.65
2022-11-24T22:28:33.917Z,2.97
2022-11-24T22:31:05.978Z,2.33
2022-11-24T22:33:33.218Z,1.88
2022-11-24T22:36:00.771Z,3.50
2022-11-24T22:38:28.268Z,2.85
2022-11-24T22:40:55.107Z,2.58
2022-11-24T22:43:23.156Z,3.28
2022-11-24T22:45:50.160Z,2.67
2022-11-24T22:48:17.020Z,3.15
2022-11-24T22:50:43.781Z,2.83
2022-11-24T22:53:10.415Z,2.70
2022-11-24T22:55:37.126Z,3.10
2022-11-24T22:58:03.695Z,2.13
2022-11-24T23:00:30.485Z,2.17
2022-11-24T23:02:57.222Z,3.30
2022-11-24T23:05:23.974Z,2.95
2022-11-24T23:07:51.429Z,3.22
2022-11-24T23:10:18.533Z,3.08
2022-11-24T23:12:45.297Z,2.03
2022-11-24T23:15:11.873Z,3.03
2022-11-24T23:17:38.586Z,2.22
2022-11-24T23:20:05.926Z,2.35
2022-11-24T23:22:32.588Z,2.05
2022-11-24T23:24:59.238Z,3.53
2022-11-24T23:27:26.192Z,2.08
2022-11-24T23:29:52.950Z,3.65
2022-11-24T23:32:19.653Z,2.70
2022-11-24T23:34:46.622Z,2.30
2022-11-24T23:37:13.266Z,1.90
2022-11-24T23:39:40.028Z,2.78
2022-11-24T23:42:06.686Z,3.00
2022-11-24T23:44:33.516Z,2.17
2022-11-24T23:47:00.426Z,1.95
2022-11-24T23:49:28.086Z,2.67
2022-11-24T23:51:54.805Z,2.83
2022-11-24T23:54:21.490Z,2.63
2022-11-24T23:56:48.086Z,2.00
2022-11-24T23:59:14.835Z,2.50
